Huvudsida
METAR-TAF:

METAR-TAF

Flygplatser :

Pescara, Italien

latitud: 42-26N, longitud: 014-12E, höjd: 10 m

Aktuellt väderrapport

Denna rapport gjordes för 48 minuter sedan, klockan 12:50 UTC
Vind 7 kt från nordost, varierande mellan nord och ost/nordost
Temperatur 19°C
Fuktighet 30%
Tryck 1022 hPa
Sikt 10 km eller mer
Inga moln under 1 500 m eller inga cumulonimbus

METAR: LIBP 091250Z 04007KT 350V070 CAVOK 19/01 Q1022

Tid: 15:38 (13:38 UTC)

Väderprognos

Denna rapport gjordes för 2 timmar och 38 minuter sedan, klockan 11:00 UTC
Prognos gäller från 09 kl. 12 UTC till 10 kl. 12 UTC
Vind 10 kt från nord/nordväst
Sikt 10 km eller mer
Inga moln under 1 500 m eller inga cumulonimbus
Blir
från 09 kl. 18 UTC till 09 kl. 20 UTC
Vind 4 kt varierande vindriktning

TAF: LIBP 091100Z 0912/1012 34010KT CAVOK BECMG 0918/0920 VRB04KT

Aktuella väderrapporter och prognoser från 4000 flygplatser (METAR- och TAF-rapporter).

De tillgängliga stationerna syns som gula och röda prickar på kartan.

För musen över prickarna för att se namnen på stationerna.

Klicka sedan för att få väderrapporter och prognoser.

För att ändra kartan: Klicka på de gröna knapparna med ett svart kors på för att zooma in; den gröna knappen med ett streck på för att zooma ut; eller på de gröna pilarna för angränsande kartor.


METAR-TAF: